createdAt,value
2023-02-27T00:01:36.254Z,98192.56
2023-02-27T00:04:39.150Z,98189.44
2023-02-27T00:07:42.571Z,98186.13
2023-02-27T00:10:45.605Z,98184.94
2023-02-27T00:13:48.540Z,98192.56
2023-02-27T00:16:51.819Z,98200.28
2023-02-27T00:19:55.142Z,98200.97
2023-02-27T00:22:58.012Z,98184.09
2023-02-27T00:26:01.215Z,98198.56
2023-02-27T00:29:04.665Z,98189.31
2023-02-27T00:32:07.516Z,98186.69
2023-02-27T00:35:11.737Z,98190.34
2023-02-27T00:38:14.504Z,98189.34
2023-02-27T00:41:17.066Z,98184.03
2023-02-27T00:44:19.719Z,98188.22
2023-02-27T00:47:22.271Z,98177.53
2023-02-27T00:50:25.070Z,98186.31
2023-02-27T00:53:28.036Z,98195.78
2023-02-27T00:56:31.077Z,98197.84
2023-02-27T00:59:33.698Z,98189.06
2023-02-27T01:02:36.614Z,98192.84
2023-02-27T01:05:39.831Z,98184.50
2023-02-27T01:08:42.502Z,98169.72
2023-02-27T01:11:45.548Z,98179.63
2023-02-27T01:14:48.223Z,98177.19
2023-02-27T01:17:53.998Z,98176.53
2023-02-27T01:20:56.877Z,98175.22
2023-02-27T01:23:59.666Z,98182.41
2023-02-27T01:27:02.391Z,98187.97
2023-02-27T01:30:07.321Z,98177.63
2023-02-27T01:33:10.322Z,98186.25
2023-02-27T01:36:16.014Z,98178.81
2023-02-27T01:39:18.679Z,98182.09
2023-02-27T01:42:24.945Z,98183.69
2023-02-27T01:45:29.304Z,98189.25
2023-02-27T01:48:36.932Z,98195.94
2023-02-27T01:51:45.762Z,98193.44
2023-02-27T01:54:48.460Z,98200.81
2023-02-27T01:57:51.703Z,98186.06
2023-02-27T02:00:57.816Z,98187.75
2023-02-27T02:04:09.032Z,98184.53
2023-02-27T02:07:16.996Z,98193.63
2023-02-27T02:10:21.044Z,98196.91
2023-02-27T02:13:24.320Z,98190.63
2023-02-27T02:16:37.496Z,98196.34
2023-02-27T02:19:40.798Z,98202.81
2023-02-27T02:23:21.349Z,98197.94
2023-02-27T02:26:51.507Z,98209.34
2023-02-27T02:30:11.743Z,98213.41
2023-02-27T02:33:41.262Z,98218.19
2023-02-27T02:37:02.981Z,98209.84
2023-02-27T02:40:08.698Z,98206.91
2023-02-27T02:43:40.609Z,98217.34
2023-02-27T02:46:48.250Z,98223.75
2023-02-27T02:49:56.920Z,98225.91
2023-02-27T02:53:22.335Z,98236.41
2023-02-27T02:56:27.574Z,98228.31
2023-02-27T02:59:37.408Z,98233.06
2023-02-27T03:02:45.820Z,98239.09
2023-02-27T03:05:53.365Z,98246.00
2023-02-27T03:09:08.491Z,98243.66
2023-02-27T03:12:14.961Z,98246.81
2023-02-27T03:15:21.195Z,98248.03
2023-02-27T03:18:28.870Z,98243.22
2023-02-27T03:21:39.575Z,98245.66
2023-02-27T03:24:45.806Z,98253.72
2023-02-27T03:28:01.643Z,98246.75
2023-02-27T03:31:10.321Z,98249.13
2023-02-27T03:34:16.274Z,98241.22
2023-02-27T03:37:37.681Z,98250.47
2023-02-27T03:40:50.294Z,98258.53
2023-02-27T03:44:26.144Z,98245.88
2023-02-27T03:47:29.982Z,98251.78
2023-02-27T03:50:34.464Z,98262.19
2023-02-27T03:53:59.916Z,98272.56
2023-02-27T03:57:07.811Z,98276.59
2023-02-27T04:00:14.901Z,98275.69
2023-02-27T04:03:18.317Z,98276.59
2023-02-27T04:06:39.507Z,98267.94
2023-02-27T04:09:58.987Z,98274.94
2023-02-27T04:13:18.492Z,98269.03
2023-02-27T04:16:30.380Z,98271.34
2023-02-27T04:20:05.453Z,98271.84
2023-02-27T04:23:08.054Z,98269.16
2023-02-27T04:26:25.995Z,98270.38
2023-02-27T04:30:00.047Z,98275.16
2023-02-27T04:33:03.047Z,98272.13
2023-02-27T04:36:38.601Z,98277.81
2023-02-27T04:39:52.156Z,98271.00
2023-02-27T04:42:56.164Z,98282.47
2023-02-27T04:46:00.612Z,98278.38
2023-02-27T04:49:09.330Z,98275.53
2023-02-27T04:52:17.902Z,98274.63
2023-02-27T04:55:28.197Z,98275.63
2023-02-27T04:58:44.581Z,98290.78
2023-02-27T05:01:54.573Z,98290.31
2023-02-27T05:05:00.988Z,98297.09
2023-02-27T05:08:17.032Z,98296.66
2023-02-27T05:11:36.642Z,98304.44
2023-02-27T05:14:47.685Z,98298.22
2023-02-27T05:18:01.064Z,98307.69
2023-02-27T05:21:15.540Z,98303.75
2023-02-27T05:24:27.034Z,98312.41
2023-02-27T05:27:35.380Z,98307.53
2023-02-27T05:30:52.903Z,98317.03
2023-02-27T05:34:32.267Z,98321.03
2023-02-27T05:37:55.441Z,98313.63
2023-02-27T05:41:02.487Z,98311.50
2023-02-27T05:44:27.890Z,98328.84
2023-02-27T05:47:32.333Z,98324.53
2023-02-27T05:50:37.827Z,98330.25
2023-02-27T05:53:44.554Z,98339.66
2023-02-27T05:56:48.044Z,98341.34
2023-02-27T05:59:58.716Z,98345.72
2023-02-27T06:03:01.698Z,98347.41
2023-02-27T06:06:13.185Z,98353.38
2023-02-27T06:09:17.116Z,98366.19
2023-02-27T06:12:20.186Z,98374.84
2023-02-27T06:15:23.547Z,98386.34
2023-02-27T06:18:26.864Z,98378.19
2023-02-27T06:21:29.944Z,98377.06
2023-02-27T06:24:33.100Z,98381.38
2023-02-27T06:27:36.247Z,98383.69
2023-02-27T06:30:39.345Z,98385.88
2023-02-27T06:33:42.332Z,98377.94
2023-02-27T06:36:45.307Z,98388.56
2023-02-27T06:39:48.543Z,98385.69
2023-02-27T06:42:51.893Z,98385.75
2023-02-27T06:45:55.257Z,98394.13
2023-02-27T06:48:58.361Z,98391.63
2023-02-27T06:52:01.743Z,98409.47
2023-02-27T06:55:06.334Z,98402.56
2023-02-27T06:58:09.916Z,98408.38
2023-02-27T07:01:13.824Z,98412.22
2023-02-27T07:04:17.368Z,98408.81
2023-02-27T07:07:35.073Z,98419.28
2023-02-27T07:10:43.130Z,98408.41
2023-02-27T07:13:46.402Z,98409.16
2023-02-27T07:16:54.217Z,98399.13
2023-02-27T07:19:57.632Z,98414.97
2023-02-27T07:23:00.419Z,98417.22
2023-02-27T07:26:04.502Z,98416.75
2023-02-27T07:29:07.556Z,98417.56
2023-02-27T07:32:11.749Z,98413.13
2023-02-27T07:35:15.103Z,98404.38
2023-02-27T07:38:19.543Z,98416.69
2023-02-27T07:41:30.723Z,98424.81
2023-02-27T07:44:38.349Z,98413.59
2023-02-27T07:47:41.961Z,98445.75
2023-02-27T07:50:45.621Z,98436.44
2023-02-27T07:53:48.503Z,98444.94
2023-02-27T07:56:51.367Z,98436.38
2023-02-27T07:59:55.486Z,98434.31
2023-02-27T08:02:58.832Z,98439.00
2023-02-27T08:06:04.745Z,98438.09
2023-02-27T08:09:08.154Z,98457.19
2023-02-27T08:12:12.381Z,98449.72
2023-02-27T08:15:15.934Z,98454.59
2023-02-27T08:18:18.784Z,98440.81
2023-02-27T08:21:22.957Z,98453.34
2023-02-27T08:24:26.549Z,98454.88
2023-02-27T08:27:29.369Z,98459.28
2023-02-27T08:30:32.474Z,98470.25
2023-02-27T08:33:36.351Z,98472.81
2023-02-27T08:36:39.940Z,98464.56
2023-02-27T08:39:44.059Z,98462.84
2023-02-27T08:42:47.127Z,98463.00
2023-02-27T08:45:50.942Z,98472.06
2023-02-27T08:48:55.204Z,98480.03
2023-02-27T08:51:58.680Z,98468.00
2023-02-27T08:55:01.517Z,98469.50
2023-02-27T08:58:05.174Z,98469.19
2023-02-27T09:01:07.900Z,98474.91
2023-02-27T09:04:13.037Z,98488.81
2023-02-27T09:07:16.836Z,98491.31
2023-02-27T09:10:19.887Z,98494.44
2023-02-27T09:13:23.122Z,98497.00
2023-02-27T09:16:27.909Z,98500.63
2023-02-27T09:19:31.703Z,98500.88
2023-02-27T09:22:34.359Z,98504.94
2023-02-27T09:25:38.348Z,98503.28
2023-02-27T09:28:41.428Z,98516.41
2023-02-27T09:31:44.735Z,98509.47
2023-02-27T09:34:47.921Z,98523.34
2023-02-27T09:37:52.026Z,98514.31
2023-02-27T09:40:57.130Z,98515.16
2023-02-27T09:44:02.564Z,98508.84
2023-02-27T09:47:07.106Z,98514.13
2023-02-27T09:50:33.856Z,98512.72
2023-02-27T09:53:43.141Z,98511.44
2023-02-27T09:56:52.215Z,98528.06
2023-02-27T10:00:08.015Z,98514.47
2023-02-27T10:03:19.946Z,98518.41
2023-02-27T10:06:44.245Z,98524.53
2023-02-27T10:10:05.886Z,98519.06
2023-02-27T10:13:24.569Z,98520.66
2023-02-27T10:16:28.265Z,98523.97
2023-02-27T10:19:36.306Z,98528.53
2023-02-27T10:22:43.984Z,98532.97
2023-02-27T10:25:52.537Z,98528.38
2023-02-27T10:28:55.837Z,98532.69
2023-02-27T10:32:16.197Z,98543.41
2023-02-27T10:35:35.800Z,98544.06
2023-02-27T10:38:48.501Z,98545.41
2023-02-27T10:41:52.288Z,98538.72
2023-02-27T10:44:56.294Z,98544.66
2023-02-27T10:48:02.177Z,98546.78
2023-02-27T10:51:25.530Z,98544.00
2023-02-27T10:54:28.614Z,98550.88
2023-02-27T10:57:37.745Z,98553.44
2023-02-27T11:00:58.739Z,98546.41
2023-02-27T11:04:02.146Z,98544.59
2023-02-27T11:07:10.736Z,98549.94
2023-02-27T11:10:13.454Z,98530.09
2023-02-27T11:13:22.053Z,98536.34
2023-02-27T11:16:25.071Z,98532.56
2023-02-27T11:19:34.271Z,98529.22
2023-02-27T11:22:37.207Z,98524.66
2023-02-27T11:25:40.600Z,98529.78
2023-02-27T11:28:43.639Z,98539.38
2023-02-27T11:31:52.596Z,98530.38
2023-02-27T11:34:56.007Z,98526.78
2023-02-27T11:38:04.525Z,98519.81
2023-02-27T11:41:09.102Z,98525.47
2023-02-27T11:44:17.838Z,98528.31
2023-02-27T11:47:39.636Z,98530.25
2023-02-27T11:51:08.097Z,98516.00
2023-02-27T11:54:43.221Z,98513.25
2023-02-27T11:57:47.774Z,98521.41
2023-02-27T12:01:02.588Z,98516.50
2023-02-27T12:04:14.297Z,98514.63
2023-02-27T12:07:26.954Z,98524.06
2023-02-27T12:10:41.161Z,98520.19
2023-02-27T12:13:48.501Z,98516.94
2023-02-27T12:16:55.093Z,98524.50
2023-02-27T12:20:08.356Z,98518.25
2023-02-27T12:23:21.825Z,98525.66
2023-02-27T12:26:26.504Z,98534.84
2023-02-27T12:29:34.264Z,98545.28
2023-02-27T12:32:51.857Z,98536.84
2023-02-27T12:36:00.803Z,98545.88
2023-02-27T12:39:05.272Z,98552.03
2023-02-27T12:42:31.467Z,98544.69
2023-02-27T12:45:55.572Z,98532.63
2023-02-27T12:49:26.733Z,98546.38
2023-02-27T12:53:17.536Z,98550.13
2023-02-27T12:56:22.731Z,98550.88
2023-02-27T12:59:43.081Z,98542.78
2023-02-27T13:03:23.735Z,98545.16
2023-02-27T13:06:34.390Z,98540.94
2023-02-27T13:09:46.025Z,98555.09
2023-02-27T13:12:54.033Z,98545.59
2023-02-27T13:16:11.959Z,98548.47
2023-02-27T13:19:17.858Z,98543.63
2023-02-27T13:22:41.124Z,98541.34
2023-02-27T13:25:48.647Z,98545.63
2023-02-27T13:28:52.123Z,98546.97
2023-02-27T13:32:02.418Z,98553.44
2023-02-27T13:35:16.123Z,98554.19
2023-02-27T13:38:44.724Z,98548.22
2023-02-27T13:41:47.615Z,98549.31
2023-02-27T13:44:51.096Z,98544.00
2023-02-27T13:47:55.530Z,98556.09
2023-02-27T13:51:00.863Z,98555.50
2023-02-27T13:54:19.711Z,98557.09
2023-02-27T13:57:28.272Z,98567.63
2023-02-27T14:00:35.622Z,98559.66
2023-02-27T14:03:39.024Z,98565.78
2023-02-27T14:06:46.211Z,98574.72
2023-02-27T14:09:54.165Z,98560.97
2023-02-27T14:12:59.466Z,98566.16
2023-02-27T14:16:02.715Z,98568.75
2023-02-27T14:19:18.414Z,98568.78
2023-02-27T14:22:40.227Z,98573.66
2023-02-27T14:25:53.962Z,98579.25
2023-02-27T14:28:58.942Z,98579.00
2023-02-27T14:32:08.813Z,98576.19
2023-02-27T14:35:15.695Z,98594.84
2023-02-27T14:38:20.889Z,98585.91
2023-02-27T14:41:36.285Z,98591.91
2023-02-27T14:44:44.702Z,98596.94
2023-02-27T14:47:47.583Z,98604.03
2023-02-27T14:50:54.065Z,98608.47
2023-02-27T14:54:08.318Z,98607.84
2023-02-27T14:57:18.847Z,98610.44
2023-02-27T15:00:32.639Z,98609.72
2023-02-27T15:03:49.628Z,98607.78
2023-02-27T15:06:54.816Z,98614.56
2023-02-27T15:10:01.617Z,98624.25
2023-02-27T15:13:06.753Z,98618.91
2023-02-27T15:16:32.254Z,98610.22
2023-02-27T15:19:35.664Z,98606.50
2023-02-27T15:22:40.095Z,98612.09
2023-02-27T15:25:43.546Z,98612.06
2023-02-27T15:28:48.889Z,98623.66
2023-02-27T15:31:52.466Z,98626.59
2023-02-27T15:34:57.832Z,98632.78
2023-02-27T15:38:03.050Z,98635.91
2023-02-27T15:41:06.707Z,98636.00
2023-02-27T15:44:13.586Z,98639.03
2023-02-27T15:47:22.181Z,98644.38
2023-02-27T15:50:26.885Z,98658.16
2023-02-27T15:53:31.114Z,98651.38
2023-02-27T15:56:37.346Z,98654.75
2023-02-27T15:59:41.758Z,98652.88
2023-02-27T16:02:54.358Z,98655.66
2023-02-27T16:05:58.290Z,98666.94
2023-02-27T16:09:05.312Z,98657.91
2023-02-27T16:12:23.041Z,98666.34
2023-02-27T16:15:31.883Z,98680.00
2023-02-27T16:18:39.513Z,98686.31
2023-02-27T16:22:03.697Z,98683.72
2023-02-27T16:25:11.382Z,98691.34
2023-02-27T16:28:14.800Z,98694.31
2023-02-27T16:31:38.800Z,98705.19
2023-02-27T16:34:46.704Z,98700.56
2023-02-27T16:37:51.556Z,98708.50
2023-02-27T16:40:54.649Z,98707.88
2023-02-27T16:43:58.284Z,98730.09
2023-02-27T16:47:02.509Z,98721.69
2023-02-27T16:50:19.207Z,98728.56
2023-02-27T16:53:22.219Z,98731.34
2023-02-27T16:56:37.574Z,98737.44
2023-02-27T16:59:42.020Z,98737.94
2023-02-27T17:02:44.774Z,98741.00
2023-02-27T17:05:49.761Z,98746.00
2023-02-27T17:08:52.951Z,98748.09
2023-02-27T17:11:57.239Z,98748.09
2023-02-27T17:15:00.319Z,98749.50
2023-02-27T17:18:03.736Z,98744.47
2023-02-27T17:21:07.318Z,98752.44
2023-02-27T17:24:10.473Z,98751.59
2023-02-27T17:27:13.749Z,98751.88
2023-02-27T17:30:19.019Z,98763.03
2023-02-27T17:33:25.772Z,98773.06
2023-02-27T17:36:30.433Z,98786.22
2023-02-27T17:39:34.604Z,98781.31
2023-02-27T17:42:39.671Z,98789.34
2023-02-27T17:45:42.791Z,98783.50
2023-02-27T17:48:45.897Z,98791.66
2023-02-27T17:51:49.246Z,98792.19
2023-02-27T17:54:52.390Z,98787.78
2023-02-27T17:57:55.691Z,98794.63
2023-02-27T18:01:11.814Z,98802.81
2023-02-27T18:04:16.600Z,98799.06
2023-02-27T18:07:19.471Z,98796.31
2023-02-27T18:10:22.425Z,98807.84
2023-02-27T18:13:27.628Z,98821.25
2023-02-27T18:16:31.022Z,98813.00
2023-02-27T18:19:34.070Z,98823.38
2023-02-27T18:22:36.845Z,98821.69
2023-02-27T18:25:40.121Z,98821.94
2023-02-27T18:28:42.902Z,98824.34
2023-02-27T18:31:50.439Z,98836.53
2023-02-27T18:34:54.395Z,98832.94
2023-02-27T18:37:57.511Z,98843.72
2023-02-27T18:41:01.978Z,98842.09
2023-02-27T18:44:05.891Z,98843.84
2023-02-27T18:47:10.138Z,98854.16
2023-02-27T18:50:13.526Z,98851.94
2023-02-27T18:53:17.138Z,98862.94
2023-02-27T18:56:23.515Z,98853.88
2023-02-27T18:59:26.980Z,98863.59
2023-02-27T19:02:30.445Z,98864.66
2023-02-27T19:05:33.431Z,98859.25
2023-02-27T19:08:36.301Z,98867.34
2023-02-27T19:11:39.420Z,98865.22
2023-02-27T19:14:42.133Z,98870.06
2023-02-27T19:17:44.792Z,98878.44
2023-02-27T19:20:48.061Z,98868.81
2023-02-27T19:23:51.102Z,98891.31
2023-02-27T19:26:53.876Z,98889.22
2023-02-27T19:29:57.216Z,98884.72
2023-02-27T19:33:00.294Z,98886.63
2023-02-27T19:36:13.312Z,98883.25
2023-02-27T19:39:16.411Z,98891.69
2023-02-27T19:42:20.416Z,98902.31
2023-02-27T19:45:23.992Z,98909.66
2023-02-27T19:48:27.273Z,98905.31
2023-02-27T19:51:30.335Z,98906.00
2023-02-27T19:54:33.435Z,98908.00
2023-02-27T19:57:37.445Z,98906.56
2023-02-27T20:00:41.026Z,98905.84
2023-02-27T20:03:44.084Z,98912.84
2023-02-27T20:06:49.678Z,98903.88
2023-02-27T20:09:52.793Z,98903.44
2023-02-27T20:12:55.471Z,98905.28
2023-02-27T20:16:03.763Z,98909.47
2023-02-27T20:19:10.755Z,98909.56
2023-02-27T20:22:17.421Z,98908.00
2023-02-27T20:25:20.697Z,98908.09
2023-02-27T20:28:23.922Z,98907.22
2023-02-27T20:31:29.535Z,98915.06
2023-02-27T20:34:33.035Z,98911.69
2023-02-27T20:37:36.164Z,98917.94
2023-02-27T20:40:39.233Z,98919.63
2023-02-27T20:43:45.239Z,98915.38
2023-02-27T20:46:49.554Z,98913.66
2023-02-27T20:49:52.512Z,98912.56
2023-02-27T20:52:55.540Z,98915.72
2023-02-27T20:55:58.460Z,98922.19
2023-02-27T20:59:04.070Z,98923.75
2023-02-27T21:02:08.947Z,98927.34
2023-02-27T21:05:11.738Z,98935.88
2023-02-27T21:08:14.957Z,98933.41
2023-02-27T21:11:21.030Z,98929.25
2023-02-27T21:14:24.081Z,98936.84
2023-02-27T21:17:26.898Z,98931.69
2023-02-27T21:20:29.795Z,98930.50
2023-02-27T21:23:32.793Z,98939.88
2023-02-27T21:26:40.577Z,98942.47
2023-02-27T21:29:43.286Z,98944.09
2023-02-27T21:32:45.904Z,98939.94
2023-02-27T21:35:49.023Z,98943.38
2023-02-27T21:38:58.502Z,98948.69
2023-02-27T21:42:01.439Z,98950.09
2023-02-27T21:45:04.653Z,98948.50
2023-02-27T21:48:08.470Z,98948.06
2023-02-27T21:51:11.927Z,98944.22
2023-02-27T21:54:15.944Z,98953.69
2023-02-27T21:57:21.452Z,98956.00
2023-02-27T22:00:26.992Z,98966.09
2023-02-27T22:03:34.642Z,98969.84
2023-02-27T22:06:37.395Z,98961.22
2023-02-27T22:09:40.140Z,98969.66
2023-02-27T22:12:42.950Z,98971.72
2023-02-27T22:15:45.548Z,98983.91
2023-02-27T22:18:49.175Z,98981.63
2023-02-27T22:21:51.817Z,98982.59
2023-02-27T22:24:54.748Z,98980.81
2023-02-27T22:27:57.639Z,98980.06
2023-02-27T22:31:20.950Z,98984.28
2023-02-27T22:34:23.723Z,98976.66
2023-02-27T22:37:26.528Z,98982.97
2023-02-27T22:40:29.869Z,98987.13
2023-02-27T22:43:35.084Z,98986.13
2023-02-27T22:46:43.422Z,98990.59
2023-02-27T22:49:46.277Z,98981.22
2023-02-27T22:52:48.873Z,98988.28
2023-02-27T22:55:55.878Z,98988.47
2023-02-27T22:58:58.929Z,98982.22
2023-02-27T23:02:01.699Z,98989.03
2023-02-27T23:05:04.685Z,98987.19
2023-02-27T23:08:07.491Z,98992.44
2023-02-27T23:11:11.293Z,98997.66
2023-02-27T23:14:14.768Z,98991.84
2023-02-27T23:17:17.310Z,98993.53
2023-02-27T23:20:20.135Z,98997.00
2023-02-27T23:23:23.122Z,98995.25
2023-02-27T23:26:28.675Z,98996.19
2023-02-27T23:29:31.431Z,99003.53
2023-02-27T23:32:43.392Z,99002.06
2023-02-27T23:35:46.210Z,99005.38
2023-02-27T23:38:49.052Z,98998.66
2023-02-27T23:41:51.735Z,99005.06
2023-02-27T23:45:23.016Z,99004.38
2023-02-27T23:48:25.660Z,99010.63
2023-02-27T23:51:30.698Z,99004.72
2023-02-27T23:54:33.740Z,99009.84
2023-02-27T23:57:36.380Z,99013.13
